sensor_id;sensor_type;location;lat;lon;timestamp;P1;durP1;ratioP1;P2;durP2;ratioP2
51491;SDS011;37569;50.548;8.778;2023-05-10T00:04:44;5.7;;;5.1;;
51491;SDS011;37569;50.548;8.778;2023-05-10T00:09:44;3;;;2.2;;
51491;SDS011;37569;50.548;8.778;2023-05-10T00:14:45;2.7;;;1.5;;
51491;SDS011;37569;50.548;8.778;2023-05-10T00:19:46;2.7;;;1.2;;
51491;SDS011;37569;50.548;8.778;2023-05-10T00:24:46;2.5;;;1.2;;
51491;SDS011;37569;50.548;8.778;2023-05-10T00:29:47;1.5;;;1.1;;
51491;SDS011;37569;50.548;8.778;2023-05-10T00:34:47;3.3;;;1.1;;
51491;SDS011;37569;50.548;8.778;2023-05-10T00:39:48;1.4;;;0.9;;
51491;SDS011;37569;50.548;8.778;2023-05-10T00:44:48;3;;;1.2;;
51491;SDS011;37569;50.548;8.778;2023-05-10T00:49:49;1.1;;;1;;
51491;SDS011;37569;50.548;8.778;2023-05-10T00:54:50;1.2;;;0.8;;
51491;SDS011;37569;50.548;8.778;2023-05-10T00:59:50;1.1;;;1;;
51491;SDS011;37569;50.548;8.778;2023-05-10T01:04:51;1.1;;;1;;
51491;SDS011;37569;50.548;8.778;2023-05-10T01:09:51;1.1;;;0.9;;
51491;SDS011;37569;50.548;8.778;2023-05-10T01:14:52;1.5;;;0.8;;
51491;SDS011;37569;50.548;8.778;2023-05-10T01:19:53;1.4;;;0.8;;
51491;SDS011;37569;50.548;8.778;2023-05-10T01:25:01;0.7;;;0.7;;
51491;SDS011;37569;50.548;8.778;2023-05-10T01:30:00;3.2;;;0.9;;
51491;SDS011;37569;50.548;8.778;2023-05-10T01:34:56;1.3;;;0.7;;
51491;SDS011;37569;50.548;8.778;2023-05-10T01:40:00;1.4;;;0.7;;
51491;SDS011;37569;50.548;8.778;2023-05-10T01:44:56;1.8;;;0.7;;
51491;SDS011;37569;50.548;8.778;2023-05-10T01:49:56;1.1;;;0.8;;
51491;SDS011;37569;50.548;8.778;2023-05-10T01:54:58;1.1;;;0.9;;
51491;SDS011;37569;50.548;8.778;2023-05-10T01:59:57;1.2;;;0.9;;
51491;SDS011;37569;50.548;8.778;2023-05-10T02:04:57;1.8;;;1;;
51491;SDS011;37569;50.548;8.778;2023-05-10T02:09:58;1.8;;;1;;
51491;SDS011;37569;50.548;8.778;2023-05-10T02:14:59;1;;;0.9;;
51491;SDS011;37569;50.548;8.778;2023-05-10T02:19:59;0.9;;;0.9;;
51491;SDS011;37569;50.548;8.778;2023-05-10T02:25:00;1.1;;;1;;
51491;SDS011;37569;50.548;8.778;2023-05-10T02:30:00;1.9;;;0.8;;
51491;SDS011;37569;50.548;8.778;2023-05-10T02:35:01;1.7;;;0.9;;
51491;SDS011;37569;50.548;8.778;2023-05-10T02:40:01;1.6;;;1.1;;
51491;SDS011;37569;50.548;8.778;2023-05-10T02:45:03;1.6;;;0.9;;
51491;SDS011;37569;50.548;8.778;2023-05-10T02:50:02;1.4;;;0.9;;
51491;SDS011;37569;50.548;8.778;2023-05-10T02:55:03;2;;;1.1;;
51491;SDS011;37569;50.548;8.778;2023-05-10T03:00:03;1.1;;;1;;
51491;SDS011;37569;50.548;8.778;2023-05-10T03:05:04;2.8;;;1.2;;
51491;SDS011;37569;50.548;8.778;2023-05-10T03:10:05;2.3;;;1.2;;
51491;SDS011;37569;50.548;8.778;2023-05-10T03:15:07;2.1;;;1.5;;
51491;SDS011;37569;50.548;8.778;2023-05-10T03:20:07;1.8;;;1.5;;
51491;SDS011;37569;50.548;8.778;2023-05-10T03:25:06;2.3;;;1.5;;
51491;SDS011;37569;50.548;8.778;2023-05-10T03:30:07;2.6;;;2;;
51491;SDS011;37569;50.548;8.778;2023-05-10T03:35:07;2.3;;;1.8;;
51491;SDS011;37569;50.548;8.778;2023-05-10T03:40:08;2;;;1.8;;
51491;SDS011;37569;50.548;8.778;2023-05-10T03:45:08;3;;;1.8;;
51491;SDS011;37569;50.548;8.778;2023-05-10T03:50:08;3;;;2;;
51491;SDS011;37569;50.548;8.778;2023-05-10T03:55:09;2.4;;;1.8;;
51491;SDS011;37569;50.548;8.778;2023-05-10T04:00:09;2.2;;;2;;
51491;SDS011;37569;50.548;8.778;2023-05-10T04:05:10;3.2;;;2.3;;
51491;SDS011;37569;50.548;8.778;2023-05-10T04:10:10;2.6;;;2.1;;
51491;SDS011;37569;50.548;8.778;2023-05-10T04:15:11;3.8;;;2.4;;
51491;SDS011;37569;50.548;8.778;2023-05-10T04:20:11;3.4;;;2.2;;
51491;SDS011;37569;50.548;8.778;2023-05-10T04:25:12;3.8;;;2.4;;
51491;SDS011;37569;50.548;8.778;2023-05-10T04:30:12;3.6;;;2;;
51491;SDS011;37569;50.548;8.778;2023-05-10T04:35:13;3.7;;;2.4;;
51491;SDS011;37569;50.548;8.778;2023-05-10T04:40:13;3.2;;;2.8;;
51491;SDS011;37569;50.548;8.778;2023-05-10T04:45:14;3.9;;;3;;
51491;SDS011;37569;50.548;8.778;2023-05-10T04:50:14;4.2;;;2.6;;
51491;SDS011;37569;50.548;8.778;2023-05-10T04:55:15;4.2;;;3.2;;
51491;SDS011;37569;50.548;8.778;2023-05-10T05:00:15;5.6;;;3.6;;
51491;SDS011;37569;50.548;8.778;2023-05-10T05:05:16;5.6;;;3.7;;
51491;SDS011;37569;50.548;8.778;2023-05-10T05:10:16;4.4;;;3.6;;
51491;SDS011;37569;50.548;8.778;2023-05-10T05:15:17;4.8;;;3.2;;
51491;SDS011;37569;50.548;8.778;2023-05-10T05:20:17;4.5;;;2.8;;
51491;SDS011;37569;50.548;8.778;2023-05-10T05:25:18;2.9;;;2.3;;
51491;SDS011;37569;50.548;8.778;2023-05-10T05:30:18;6.8;;;4.3;;
51491;SDS011;37569;50.548;8.778;2023-05-10T05:35:19;2.6;;;2.2;;
51491;SDS011;37569;50.548;8.778;2023-05-10T05:40:19;2.6;;;1.9;;
51491;SDS011;37569;50.548;8.778;2023-05-10T05:45:20;3.8;;;1.8;;
51491;SDS011;37569;50.548;8.778;2023-05-10T05:50:20;1.8;;;1.4;;
51491;SDS011;37569;50.548;8.778;2023-05-10T05:55:21;2.1;;;1.6;;
51491;SDS011;37569;50.548;8.778;2023-05-10T06:00:21;1.6;;;1.4;;
51491;SDS011;37569;50.548;8.778;2023-05-10T06:05:22;1.9;;;1.4;;
51491;SDS011;37569;50.548;8.778;2023-05-10T06:10:23;2;;;1.2;;
51491;SDS011;37569;50.548;8.778;2023-05-10T06:15:23;1.3;;;1.2;;
51491;SDS011;37569;50.548;8.778;2023-05-10T06:20:24;1.5;;;1.2;;
51491;SDS011;37569;50.548;8.778;2023-05-10T06:25:25;2.3;;;1.2;;
51491;SDS011;37569;50.548;8.778;2023-05-10T06:30:25;1.9;;;1.2;;
51491;SDS011;37569;50.548;8.778;2023-05-10T06:35:26;1.6;;;1.1;;
51491;SDS011;37569;50.548;8.778;2023-05-10T06:40:26;1.8;;;1.1;;
51491;SDS011;37569;50.548;8.778;2023-05-10T06:45:27;1.7;;;1.3;;
51491;SDS011;37569;50.548;8.778;2023-05-10T06:50:28;2.8;;;1.3;;
51491;SDS011;37569;50.548;8.778;2023-05-10T06:55:28;1.9;;;1.4;;
51491;SDS011;37569;50.548;8.778;2023-05-10T07:00:29;1.7;;;1.3;;
51491;SDS011;37569;50.548;8.778;2023-05-10T07:05:29;1.9;;;1.4;;
51491;SDS011;37569;50.548;8.778;2023-05-10T07:10:30;2.7;;;1.7;;
51491;SDS011;37569;50.548;8.778;2023-05-10T07:15:30;2.3;;;1.8;;
51491;SDS011;37569;50.548;8.778;2023-05-10T07:20:31;2.9;;;2.1;;
51491;SDS011;37569;50.548;8.778;2023-05-10T07:25:32;3.9;;;2;;
51491;SDS011;37569;50.548;8.778;2023-05-10T07:30:32;2;;;1.8;;
51491;SDS011;37569;50.548;8.778;2023-05-10T07:35:33;3.2;;;1.9;;
51491;SDS011;37569;50.548;8.778;2023-05-10T07:40:34;3.6;;;2.2;;
51491;SDS011;37569;50.548;8.778;2023-05-10T07:45:34;1.9;;;1.8;;
51491;SDS011;37569;50.548;8.778;2023-05-10T07:50:35;2;;;1.8;;
51491;SDS011;37569;50.548;8.778;2023-05-10T07:55:35;2.1;;;1.8;;
51491;SDS011;37569;50.548;8.778;2023-05-10T08:00:36;3.3;;;1.8;;
51491;SDS011;37569;50.548;8.778;2023-05-10T08:05:37;1.9;;;1.5;;
51491;SDS011;37569;50.548;8.778;2023-05-10T08:10:37;2.5;;;1.7;;
51491;SDS011;37569;50.548;8.778;2023-05-10T08:15:38;2.1;;;1.9;;
51491;SDS011;37569;50.548;8.778;2023-05-10T08:20:39;2.4;;;1.8;;
51491;SDS011;37569;50.548;8.778;2023-05-10T08:25:40;2.5;;;1.6;;
51491;SDS011;37569;50.548;8.778;2023-05-10T08:30:40;2.9;;;1.6;;
51491;SDS011;37569;50.548;8.778;2023-05-10T08:35:41;2.2;;;1.8;;
51491;SDS011;37569;50.548;8.778;2023-05-10T08:40:42;2.1;;;1.9;;
51491;SDS011;37569;50.548;8.778;2023-05-10T08:45:43;2;;;1.5;;
51491;SDS011;37569;50.548;8.778;2023-05-10T08:50:43;2.2;;;1.8;;
51491;SDS011;37569;50.548;8.778;2023-05-10T08:55:44;2.3;;;1.7;;
51491;SDS011;37569;50.548;8.778;2023-05-10T09:00:44;2.2;;;2;;
51491;SDS011;37569;50.548;8.778;2023-05-10T09:05:45;2.4;;;2;;
51491;SDS011;37569;50.548;8.778;2023-05-10T09:10:46;3;;;2.6;;
51491;SDS011;37569;50.548;8.778;2023-05-10T09:15:46;2.5;;;2.3;;
51491;SDS011;37569;50.548;8.778;2023-05-10T09:20:48;2.7;;;2.5;;
51491;SDS011;37569;50.548;8.778;2023-05-10T09:25:48;3.4;;;2.1;;
51491;SDS011;37569;50.548;8.778;2023-05-10T09:30:52;4.1;;;2.5;;
51491;SDS011;37569;50.548;8.778;2023-05-10T09:35:50;4.9;;;2.5;;
51491;SDS011;37569;50.548;8.778;2023-05-10T09:40:51;2.9;;;2;;
51491;SDS011;37569;50.548;8.778;2023-05-10T09:45:51;2.2;;;2;;
51491;SDS011;37569;50.548;8.778;2023-05-10T09:50:56;2.9;;;2.1;;
51491;SDS011;37569;50.548;8.778;2023-05-10T09:55:52;2.8;;;2.3;;
51491;SDS011;37569;50.548;8.778;2023-05-10T10:00:53;2.6;;;2.1;;
51491;SDS011;37569;50.548;8.778;2023-05-10T10:05:54;1.7;;;1.6;;
51491;SDS011;37569;50.548;8.778;2023-05-10T10:10:55;2.5;;;1.9;;
51491;SDS011;37569;50.548;8.778;2023-05-10T10:15:55;2.3;;;1.7;;
51491;SDS011;37569;50.548;8.778;2023-05-10T10:20:56;2.1;;;1.9;;
51491;SDS011;37569;50.548;8.778;2023-05-10T10:25:57;1.9;;;1.6;;
51491;SDS011;37569;50.548;8.778;2023-05-10T10:30:59;1.6;;;1.5;;
51491;SDS011;37569;50.548;8.778;2023-05-10T10:35:59;2;;;1.4;;
51491;SDS011;37569;50.548;8.778;2023-05-10T10:41:01;2.2;;;1.5;;
51491;SDS011;37569;50.548;8.778;2023-05-10T10:46:15;1.7;;;1.5;;
51491;SDS011;37569;50.548;8.778;2023-05-10T10:51:00;2.4;;;1.8;;
51491;SDS011;37569;50.548;8.778;2023-05-10T10:56:04;2.9;;;2.6;;
51491;SDS011;37569;50.548;8.778;2023-05-10T11:01:10;2.5;;;2.3;;
51491;SDS011;37569;50.548;8.778;2023-05-10T11:06:03;2.5;;;2.3;;
51491;SDS011;37569;50.548;8.778;2023-05-10T11:11:05;3.9;;;2.8;;
51491;SDS011;37569;50.548;8.778;2023-05-10T11:16:13;3.1;;;2.8;;
51491;SDS011;37569;50.548;8.778;2023-05-10T11:21:07;3.3;;;2.6;;
51491;SDS011;37569;50.548;8.778;2023-05-10T11:26:07;3.1;;;2.6;;
51491;SDS011;37569;50.548;8.778;2023-05-10T11:31:07;3.4;;;2.6;;
51491;SDS011;37569;50.548;8.778;2023-05-10T11:36:10;2.6;;;2.2;;
51491;SDS011;37569;50.548;8.778;2023-05-10T11:41:08;3;;;2;;
51491;SDS011;37569;50.548;8.778;2023-05-10T11:46:10;3.4;;;2.4;;
51491;SDS011;37569;50.548;8.778;2023-05-10T11:51:10;4.8;;;2.4;;
51491;SDS011;37569;50.548;8.778;2023-05-10T11:56:11;2.8;;;1.9;;
51491;SDS011;37569;50.548;8.778;2023-05-10T12:01:11;3.6;;;1.9;;
51491;SDS011;37569;50.548;8.778;2023-05-10T12:06:12;3.3;;;2;;
51491;SDS011;37569;50.548;8.778;2023-05-10T12:11:13;2;;;1.8;;
51491;SDS011;37569;50.548;8.778;2023-05-10T12:16:13;3.1;;;2.1;;
51491;SDS011;37569;50.548;8.778;2023-05-10T12:21:14;2.7;;;2;;
51491;SDS011;37569;50.548;8.778;2023-05-10T12:26:15;4;;;2.1;;
51491;SDS011;37569;50.548;8.778;2023-05-10T12:31:15;2.9;;;2;;
51491;SDS011;37569;50.548;8.778;2023-05-10T12:36:16;3.2;;;2;;
51491;SDS011;37569;50.548;8.778;2023-05-10T12:41:17;2.8;;;1.7;;
51491;SDS011;37569;50.548;8.778;2023-05-10T12:46:18;2.6;;;1.5;;
51491;SDS011;37569;50.548;8.778;2023-05-10T12:51:18;2.4;;;1.5;;
51491;SDS011;37569;50.548;8.778;2023-05-10T12:56:19;1.8;;;1.4;;
51491;SDS011;37569;50.548;8.778;2023-05-10T13:01:20;1.7;;;1.3;;
51491;SDS011;37569;50.548;8.778;2023-05-10T13:06:20;2.1;;;1.4;;
51491;SDS011;37569;50.548;8.778;2023-05-10T13:11:21;2.1;;;1.3;;
51491;SDS011;37569;50.548;8.778;2023-05-10T13:16:22;2;;;1.5;;
51491;SDS011;37569;50.548;8.778;2023-05-10T13:21:23;2.2;;;1.3;;
51491;SDS011;37569;50.548;8.778;2023-05-10T13:26:23;1.9;;;1.4;;
51491;SDS011;37569;50.548;8.778;2023-05-10T13:31:24;2.3;;;1.3;;
51491;SDS011;37569;50.548;8.778;2023-05-10T13:36:25;1.8;;;1.4;;
51491;SDS011;37569;50.548;8.778;2023-05-10T13:41:26;2.9;;;1.5;;
51491;SDS011;37569;50.548;8.778;2023-05-10T13:46:26;2.6;;;1.4;;
51491;SDS011;37569;50.548;8.778;2023-05-10T13:51:27;3.1;;;1.7;;
51491;SDS011;37569;50.548;8.778;2023-05-10T13:56:28;3.3;;;1.5;;
51491;SDS011;37569;50.548;8.778;2023-05-10T14:01:28;2;;;1.5;;
51491;SDS011;37569;50.548;8.778;2023-05-10T14:06:29;4.1;;;1.6;;
51491;SDS011;37569;50.548;8.778;2023-05-10T14:11:30;4.4;;;2.3;;
51491;SDS011;37569;50.548;8.778;2023-05-10T14:16:31;2.3;;;1.6;;
51491;SDS011;37569;50.548;8.778;2023-05-10T14:21:31;2.5;;;1.7;;
51491;SDS011;37569;50.548;8.778;2023-05-10T14:26:32;2.5;;;1.7;;
51491;SDS011;37569;50.548;8.778;2023-05-10T14:31:33;3.2;;;1.9;;
51491;SDS011;37569;50.548;8.778;2023-05-10T14:36:34;1.6;;;1.5;;
51491;SDS011;37569;50.548;8.778;2023-05-10T14:41:34;2;;;1.4;;
51491;SDS011;37569;50.548;8.778;2023-05-10T14:46:35;2.8;;;1.8;;
51491;SDS011;37569;50.548;8.778;2023-05-10T14:51:36;3.4;;;1.9;;
51491;SDS011;37569;50.548;8.778;2023-05-10T14:56:37;0.8;;;0.7;;
51491;SDS011;37569;50.548;8.778;2023-05-10T15:01:38;0.7;;;0.7;;
51491;SDS011;37569;50.548;8.778;2023-05-10T15:06:38;1;;;0.8;;
51491;SDS011;37569;50.548;8.778;2023-05-10T15:11:39;1.7;;;1;;
51491;SDS011;37569;50.548;8.778;2023-05-10T15:16:40;0.9;;;0.8;;
51491;SDS011;37569;50.548;8.778;2023-05-10T15:21:40;2.8;;;0.9;;
51491;SDS011;37569;50.548;8.778;2023-05-10T15:26:41;2.5;;;1;;
51491;SDS011;37569;50.548;8.778;2023-05-10T15:31:42;1.9;;;1.2;;
51491;SDS011;37569;50.548;8.778;2023-05-10T15:36:43;5.4;;;1.7;;
51491;SDS011;37569;50.548;8.778;2023-05-10T15:41:44;6.1;;;1.4;;
51491;SDS011;37569;50.548;8.778;2023-05-10T15:46:44;6.4;;;1.6;;
51491;SDS011;37569;50.548;8.778;2023-05-10T15:51:45;5.9;;;1.5;;
51491;SDS011;37569;50.548;8.778;2023-05-10T15:56:46;3.3;;;2.2;;
51491;SDS011;37569;50.548;8.778;2023-05-10T16:01:46;3.4;;;1.6;;
51491;SDS011;37569;50.548;8.778;2023-05-10T16:06:47;3;;;1.4;;
51491;SDS011;37569;50.548;8.778;2023-05-10T16:11:48;6.8;;;1.7;;
51491;SDS011;37569;50.548;8.778;2023-05-10T16:16:48;4.8;;;1.8;;
51491;SDS011;37569;50.548;8.778;2023-05-10T16:21:49;2.8;;;1.5;;
51491;SDS011;37569;50.548;8.778;2023-05-10T16:26:49;2.9;;;1.4;;
51491;SDS011;37569;50.548;8.778;2023-05-10T16:31:50;4.1;;;1.5;;
51491;SDS011;37569;50.548;8.778;2023-05-10T16:36:51;2.7;;;1.5;;
51491;SDS011;37569;50.548;8.778;2023-05-10T16:41:51;2.8;;;1.4;;
51491;SDS011;37569;50.548;8.778;2023-05-10T16:46:52;2.1;;;1.4;;
51491;SDS011;37569;50.548;8.778;2023-05-10T16:51:53;3.1;;;1.5;;
51491;SDS011;37569;50.548;8.778;2023-05-10T16:56:54;2;;;1.4;;
51491;SDS011;37569;50.548;8.778;2023-05-10T17:01:54;2.3;;;1;;
51491;SDS011;37569;50.548;8.778;2023-05-10T17:06:55;2.3;;;1.1;;
51491;SDS011;37569;50.548;8.778;2023-05-10T17:11:56;2.1;;;1;;
51491;SDS011;37569;50.548;8.778;2023-05-10T17:16:56;2.1;;;1.3;;
51491;SDS011;37569;50.548;8.778;2023-05-10T17:21:57;1.8;;;1.1;;
51491;SDS011;37569;50.548;8.778;2023-05-10T17:26:58;1;;;0.9;;
51491;SDS011;37569;50.548;8.778;2023-05-10T17:31:59;1.2;;;1;;
51491;SDS011;37569;50.548;8.778;2023-05-10T17:36:59;2.2;;;1.1;;
51491;SDS011;37569;50.548;8.778;2023-05-10T17:42:00;1.6;;;1;;
51491;SDS011;37569;50.548;8.778;2023-05-10T17:47:01;2;;;1.1;;
51491;SDS011;37569;50.548;8.778;2023-05-10T17:52:01;1.9;;;1.2;;
51491;SDS011;37569;50.548;8.778;2023-05-10T17:57:02;1.7;;;1;;
51491;SDS011;37569;50.548;8.778;2023-05-10T18:02:03;1.6;;;1.1;;
51491;SDS011;37569;50.548;8.778;2023-05-10T18:07:03;1.5;;;1.2;;
51491;SDS011;37569;50.548;8.778;2023-05-10T18:12:04;2.4;;;1.2;;
51491;SDS011;37569;50.548;8.778;2023-05-10T18:17:05;3.3;;;1.3;;
51491;SDS011;37569;50.548;8.778;2023-05-10T18:22:05;2.4;;;1.4;;
51491;SDS011;37569;50.548;8.778;2023-05-10T18:27:06;2.2;;;1.4;;
51491;SDS011;37569;50.548;8.778;2023-05-10T18:32:07;2.7;;;1.2;;
51491;SDS011;37569;50.548;8.778;2023-05-10T18:37:07;2.9;;;1.4;;
51491;SDS011;37569;50.548;8.778;2023-05-10T18:42:08;1.2;;;1.1;;
51491;SDS011;37569;50.548;8.778;2023-05-10T18:47:09;1.6;;;1.3;;
51491;SDS011;37569;50.548;8.778;2023-05-10T18:52:09;1.7;;;1.5;;
51491;SDS011;37569;50.548;8.778;2023-05-10T18:57:10;3.2;;;1.4;;
51491;SDS011;37569;50.548;8.778;2023-05-10T19:02:11;2.3;;;1.4;;
51491;SDS011;37569;50.548;8.778;2023-05-10T19:07:11;5;;;3.5;;
51491;SDS011;37569;50.548;8.778;2023-05-10T19:12:12;4.1;;;1.9;;
51491;SDS011;37569;50.548;8.778;2023-05-10T19:17:13;3.5;;;1.7;;
51491;SDS011;37569;50.548;8.778;2023-05-10T19:22:13;2.2;;;1.9;;
51491;SDS011;37569;50.548;8.778;2023-05-10T19:27:14;3.4;;;1.8;;
51491;SDS011;37569;50.548;8.778;2023-05-10T19:32:14;3;;;1.8;;
51491;SDS011;37569;50.548;8.778;2023-05-10T19:37:15;2.5;;;2.1;;
51491;SDS011;37569;50.548;8.778;2023-05-10T19:42:16;3.3;;;1.9;;
51491;SDS011;37569;50.548;8.778;2023-05-10T19:47:16;5.1;;;4.6;;
51491;SDS011;37569;50.548;8.778;2023-05-10T19:52:17;5.1;;;4.6;;
51491;SDS011;37569;50.548;8.778;2023-05-10T19:57:17;4.8;;;4.1;;
51491;SDS011;37569;50.548;8.778;2023-05-10T20:02:18;4.8;;;3.1;;
51491;SDS011;37569;50.548;8.778;2023-05-10T20:07:18;3;;;2.7;;
51491;SDS011;37569;50.548;8.778;2023-05-10T20:12:19;3.4;;;2.7;;
51491;SDS011;37569;50.548;8.778;2023-05-10T20:17:20;4;;;2.6;;
51491;SDS011;37569;50.548;8.778;2023-05-10T20:22:20;3.9;;;2.6;;
51491;SDS011;37569;50.548;8.778;2023-05-10T20:27:21;4.7;;;2.7;;
51491;SDS011;37569;50.548;8.778;2023-05-10T20:32:21;4.7;;;3.7;;
51491;SDS011;37569;50.548;8.778;2023-05-10T20:37:22;4.7;;;2.6;;
51491;SDS011;37569;50.548;8.778;2023-05-10T20:42:23;2.6;;;2.3;;
51491;SDS011;37569;50.548;8.778;2023-05-10T20:47:23;3.9;;;2.3;;
51491;SDS011;37569;50.548;8.778;2023-05-10T20:52:24;4.1;;;3.1;;
51491;SDS011;37569;50.548;8.778;2023-05-10T20:57:24;4.2;;;3.2;;
51491;SDS011;37569;50.548;8.778;2023-05-10T21:02:25;6.3;;;3.7;;
51491;SDS011;37569;50.548;8.778;2023-05-10T21:07:25;6.5;;;3.3;;
51491;SDS011;37569;50.548;8.778;2023-05-10T21:12:26;3.5;;;3.2;;
51491;SDS011;37569;50.548;8.778;2023-05-10T21:17:27;5.5;;;3.2;;
51491;SDS011;37569;50.548;8.778;2023-05-10T21:22:27;3.6;;;2.9;;
51491;SDS011;37569;50.548;8.778;2023-05-10T21:27:28;5.9;;;3.3;;
51491;SDS011;37569;50.548;8.778;2023-05-10T21:32:28;5.1;;;3.5;;
51491;SDS011;37569;50.548;8.778;2023-05-10T21:37:29;4.6;;;3.1;;
51491;SDS011;37569;50.548;8.778;2023-05-10T21:42:30;3.8;;;3;;
51491;SDS011;37569;50.548;8.778;2023-05-10T21:47:30;3.8;;;2.6;;
51491;SDS011;37569;50.548;8.778;2023-05-10T21:52:31;2.6;;;2.4;;
51491;SDS011;37569;50.548;8.778;2023-05-10T21:57:31;2.4;;;2.2;;
51491;SDS011;37569;50.548;8.778;2023-05-10T22:02:32;4.3;;;2.5;;
51491;SDS011;37569;50.548;8.778;2023-05-10T22:07:32;5.5;;;3;;
51491;SDS011;37569;50.548;8.778;2023-05-10T22:12:33;4.9;;;2.6;;
51491;SDS011;37569;50.548;8.778;2023-05-10T22:17:34;4;;;2.6;;
51491;SDS011;37569;50.548;8.778;2023-05-10T22:22:34;4.4;;;2.8;;
51491;SDS011;37569;50.548;8.778;2023-05-10T22:27:35;4.6;;;2.8;;
51491;SDS011;37569;50.548;8.778;2023-05-10T22:32:36;4.6;;;2.8;;
51491;SDS011;37569;50.548;8.778;2023-05-10T22:37:36;5.8;;;2.8;;
51491;SDS011;37569;50.548;8.778;2023-05-10T22:42:37;4.7;;;2.9;;
51491;SDS011;37569;50.548;8.778;2023-05-10T22:47:37;3.6;;;2.5;;
51491;SDS011;37569;50.548;8.778;2023-05-10T22:52:38;5.9;;;2.7;;
51491;SDS011;37569;50.548;8.778;2023-05-10T22:57:38;6.4;;;2.7;;
51491;SDS011;37569;50.548;8.778;2023-05-10T23:02:39;3.5;;;2.2;;
51491;SDS011;37569;50.548;8.778;2023-05-10T23:07:40;4;;;2.4;;
51491;SDS011;37569;50.548;8.778;2023-05-10T23:12:40;4.5;;;2.3;;
51491;SDS011;37569;50.548;8.778;2023-05-10T23:17:41;4.2;;;2.4;;
51491;SDS011;37569;50.548;8.778;2023-05-10T23:22:41;2.4;;;2.2;;
51491;SDS011;37569;50.548;8.778;2023-05-10T23:27:42;4.4;;;2.6;;
51491;SDS011;37569;50.548;8.778;2023-05-10T23:32:42;3.7;;;2.4;;
51491;SDS011;37569;50.548;8.778;2023-05-10T23:37:43;4.1;;;2.3;;
51491;SDS011;37569;50.548;8.778;2023-05-10T23:42:43;5.6;;;2.5;;
51491;SDS011;37569;50.548;8.778;2023-05-10T23:47:44;3.9;;;2.5;;
51491;SDS011;37569;50.548;8.778;2023-05-10T23:52:44;4;;;2.5;;
51491;SDS011;37569;50.548;8.778;2023-05-10T23:57:45;3.5;;;3.1;;
